Aeroporto :
LOGIN :

Iscrizione | Disclaimer

   EN    FR    IT 

 










Sommario :    VFR   VFR Marginale   IFR   IFR Intensivo   IFR Molto Intensivo
Visibilità : 
Base nubi : 
>= 8 km
>= 3000ft
5 / 8 km
1000 / 3000 ft
1500m / 5 km
500 / 1000 ft
800 / 1500m
200 / 500 ft
< 800m
< 200 ft
Simboli :   Temporali  Nebbia  Neve Forte  Precipitazioni Forti  Vento > 20 kt
SIGMETs :   Varie  Temporali  Ghiacco  Turbolenza  Onda orograficha  Ceneri Vulcaniche






- Altitudine del aeroporto : 235 ft
- Codice IATA : BZG


EPBY - Bydgoszcz

ULTIMO METAR :
  • 271230Z 24012KT 9999 -RA SCT003 BKN005 10/10 Q1002

METARs OBSOLETI :
  • 271200Z 24011KT 5000 -RA BR FEW003 BKN004 11/10 Q1002
  • 271130Z 26012KT 5000 -RA BR SCT003 BKN004 11/10 Q1001
  • 271100Z 27010KT 3500 -RADZ BR SCT003 BKN004 11/10 Q1001
  • 271030Z 27012KT 4500 -DZ BR SCT003 BKN004 10/10 Q1001
  • 271000Z 27013KT 7000 -DZ BKN004 10/10 Q1000

TAF TAF EPBY
Valido dal 27 a 12 ore il 28 a 12 ore UTC


271130Z 2712/2812 27010KT 8000 -RA BKN005 OVC014
PROB30
TEMPO 2712/2718 4000 RA BR BKN003
BECMG 2718/2720 19008KT 9999 SCT014 BKN025
PROB40
TEMPO 2720/2808 4000 BR BKN004
BECMG 2723/2801 SCT030



MetMap, La meteo Aeronautica in un colpo d'occhio ! - Copyright ORBIFLY Dicembre 2007 - Disclaimer

ORBIFLY MET'MAP TEAM :

Programmazione e sviluppo : Alexandra Zaïnal
Concezione : Baudouin d'Aumeries
Aiuto per la programmazione : Marc-Olivier Méhu
Supporto tecnico e logistico : Manuel Goepfert
Aiuto per la traduzione : Arnaldo La Scala

Contatto : metmap@orbifly.com




FONTI E CREDITI :

   NOAA